sensor_id;sensor_type;location;lat;lon;timestamp;temperature;humidity
37240;DHT22;23130;48.760;9.178;2023-06-01T00:02:02;14.20;93.40
37240;DHT22;23130;48.760;9.178;2023-06-01T00:04:27;14.20;93.20
37240;DHT22;23130;48.760;9.178;2023-06-01T00:06:53;14.20;93.10
37240;DHT22;23130;48.760;9.178;2023-06-01T00:09:18;14.30;93.10
37240;DHT22;23130;48.760;9.178;2023-06-01T00:11:44;14.30;93.20
37240;DHT22;23130;48.760;9.178;2023-06-01T00:14:10;14.40;93.10
37240;DHT22;23130;48.760;9.178;2023-06-01T00:16:35;14.40;93.10
37240;DHT22;23130;48.760;9.178;2023-06-01T00:19:01;14.40;93.10
37240;DHT22;23130;48.760;9.178;2023-06-01T00:21:29;14.30;93.30
37240;DHT22;23130;48.760;9.178;2023-06-01T00:23:57;14.30;93.50
37240;DHT22;23130;48.760;9.178;2023-06-01T00:26:23;14.20;93.80
37240;DHT22;23130;48.760;9.178;2023-06-01T00:28:48;14.10;94.10
37240;DHT22;23130;48.760;9.178;2023-06-01T00:31:14;14.00;94.50
37240;DHT22;23130;48.760;9.178;2023-06-01T00:33:40;13.80;94.70
37240;DHT22;23130;48.760;9.178;2023-06-01T00:36:05;13.70;94.60
37240;DHT22;23130;48.760;9.178;2023-06-01T00:38:31;13.70;94.70
37240;DHT22;23130;48.760;9.178;2023-06-01T00:40:57;13.70;94.70
37240;DHT22;23130;48.760;9.178;2023-06-01T00:43:22;13.70;94.70
37240;DHT22;23130;48.760;9.178;2023-06-01T00:45:48;13.90;94.50
37240;DHT22;23130;48.760;9.178;2023-06-01T00:48:15;14.00;94.40
37240;DHT22;23130;48.760;9.178;2023-06-01T00:50:46;14.10;94.50
37240;DHT22;23130;48.760;9.178;2023-06-01T00:53:16;14.00;94.80
37240;DHT22;23130;48.760;9.178;2023-06-01T00:55:43;13.90;94.90
37240;DHT22;23130;48.760;9.178;2023-06-01T00:58:14;13.80;94.90
37240;DHT22;23130;48.760;9.178;2023-06-01T01:00:41;13.70;95.10
37240;DHT22;23130;48.760;9.178;2023-06-01T01:03:09;13.60;95.30
37240;DHT22;23130;48.760;9.178;2023-06-01T01:05:38;13.50;95.80
37240;DHT22;23130;48.760;9.178;2023-06-01T01:11:18;13.40;96.00
37240;DHT22;23130;48.760;9.178;2023-06-01T01:14:05;13.40;96.10
37240;DHT22;23130;48.760;9.178;2023-06-01T01:16:57;13.40;96.30
37240;DHT22;23130;48.760;9.178;2023-06-01T01:19:50;13.30;96.40
37240;DHT22;23130;48.760;9.178;2023-06-01T01:22:43;13.20;96.60
37240;DHT22;23130;48.760;9.178;2023-06-01T01:28:38;13.10;97.00
37240;DHT22;23130;48.760;9.178;2023-06-01T01:31:09;13.00;97.10
37240;DHT22;23130;48.760;9.178;2023-06-01T01:33:37;13.00;97.30
37240;DHT22;23130;48.760;9.178;2023-06-01T01:36:04;13.00;97.40
37240;DHT22;23130;48.760;9.178;2023-06-01T01:38:35;13.00;97.40
37240;DHT22;23130;48.760;9.178;2023-06-01T01:41:02;13.00;97.50
37240;DHT22;23130;48.760;9.178;2023-06-01T01:43:30;13.00;97.70
37240;DHT22;23130;48.760;9.178;2023-06-01T01:54:10;12.80;98.30
37240;DHT22;23130;48.760;9.178;2023-06-01T01:56:38;12.80;98.40
37240;DHT22;23130;48.760;9.178;2023-06-01T01:59:05;12.80;98.50
37240;DHT22;23130;48.760;9.178;2023-06-01T02:01:32;12.90;98.60
37240;DHT22;23130;48.760;9.178;2023-06-01T02:04:04;12.90;98.70
37240;DHT22;23130;48.760;9.178;2023-06-01T02:06:33;12.90;98.60
37240;DHT22;23130;48.760;9.178;2023-06-01T02:09:00;12.80;98.80
37240;DHT22;23130;48.760;9.178;2023-06-01T02:11:26;12.80;99.00
37240;DHT22;23130;48.760;9.178;2023-06-01T02:13:52;12.70;99.00
37240;DHT22;23130;48.760;9.178;2023-06-01T02:16:18;12.70;99.20
37240;DHT22;23130;48.760;9.178;2023-06-01T02:18:47;12.70;99.20
37240;DHT22;23130;48.760;9.178;2023-06-01T02:21:16;12.70;99.20
37240;DHT22;23130;48.760;9.178;2023-06-01T02:23:43;12.70;99.40
37240;DHT22;23130;48.760;9.178;2023-06-01T02:26:10;12.60;99.80
37240;DHT22;23130;48.760;9.178;2023-06-01T02:28:39;12.60;99.90
37240;DHT22;23130;48.760;9.178;2023-06-01T02:31:07;12.50;99.90
37240;DHT22;23130;48.760;9.178;2023-06-01T02:33:32;12.50;99.90
37240;DHT22;23130;48.760;9.178;2023-06-01T02:35:59;12.50;99.90
37240;DHT22;23130;48.760;9.178;2023-06-01T02:38:26;12.40;99.90
37240;DHT22;23130;48.760;9.178;2023-06-01T02:40:52;12.40;99.90
37240;DHT22;23130;48.760;9.178;2023-06-01T02:43:17;12.30;99.90
37240;DHT22;23130;48.760;9.178;2023-06-01T02:45:43;12.30;99.90
37240;DHT22;23130;48.760;9.178;2023-06-01T02:48:12;12.20;99.90
37240;DHT22;23130;48.760;9.178;2023-06-01T02:50:38;12.20;99.90
37240;DHT22;23130;48.760;9.178;2023-06-01T02:53:04;12.10;99.90
37240;DHT22;23130;48.760;9.178;2023-06-01T02:55:30;12.10;99.90
37240;DHT22;23130;48.760;9.178;2023-06-01T02:57:56;12.20;99.90
37240;DHT22;23130;48.760;9.178;2023-06-01T03:00:21;12.20;99.90
37240;DHT22;23130;48.760;9.178;2023-06-01T03:02:49;12.20;99.90
37240;DHT22;23130;48.760;9.178;2023-06-01T03:05:15;12.20;99.90
37240;DHT22;23130;48.760;9.178;2023-06-01T03:07:45;12.20;99.90
37240;DHT22;23130;48.760;9.178;2023-06-01T03:10:13;12.20;99.90
37240;DHT22;23130;48.760;9.178;2023-06-01T03:12:39;12.20;99.90
37240;DHT22;23130;48.760;9.178;2023-06-01T03:15:07;12.20;99.90
37240;DHT22;23130;48.760;9.178;2023-06-01T03:17:37;12.10;99.90
37240;DHT22;23130;48.760;9.178;2023-06-01T03:20:06;12.10;99.90
37240;DHT22;23130;48.760;9.178;2023-06-01T03:22:46;12.10;99.90
37240;DHT22;23130;48.760;9.178;2023-06-01T03:25:12;12.10;99.90
37240;DHT22;23130;48.760;9.178;2023-06-01T03:27:39;12.10;99.90
37240;DHT22;23130;48.760;9.178;2023-06-01T03:30:06;12.10;99.90
37240;DHT22;23130;48.760;9.178;2023-06-01T03:32:39;12.20;99.90
37240;DHT22;23130;48.760;9.178;2023-06-01T03:35:07;12.20;99.90
37240;DHT22;23130;48.760;9.178;2023-06-01T03:37:39;12.20;99.90
37240;DHT22;23130;48.760;9.178;2023-06-01T03:40:12;12.20;99.90
37240;DHT22;23130;48.760;9.178;2023-06-01T03:42:44;12.30;99.90
37240;DHT22;23130;48.760;9.178;2023-06-01T03:45:12;12.30;99.90
37240;DHT22;23130;48.760;9.178;2023-06-01T03:47:39;12.30;99.90
37240;DHT22;23130;48.760;9.178;2023-06-01T03:50:06;12.30;99.90
37240;DHT22;23130;48.760;9.178;2023-06-01T03:52:33;12.40;99.90
37240;DHT22;23130;48.760;9.178;2023-06-01T03:55:00;12.50;99.90
37240;DHT22;23130;48.760;9.178;2023-06-01T03:57:40;12.60;99.90
37240;DHT22;23130;48.760;9.178;2023-06-01T04:00:07;12.80;99.90
37240;DHT22;23130;48.760;9.178;2023-06-01T04:02:55;13.00;99.90
37240;DHT22;23130;48.760;9.178;2023-06-01T04:05:22;13.20;99.90
37240;DHT22;23130;48.760;9.178;2023-06-01T04:07:49;13.30;99.90
37240;DHT22;23130;48.760;9.178;2023-06-01T04:10:15;13.40;99.90
37240;DHT22;23130;48.760;9.178;2023-06-01T04:12:43;13.50;99.90
37240;DHT22;23130;48.760;9.178;2023-06-01T04:15:09;13.60;99.90
37240;DHT22;23130;48.760;9.178;2023-06-01T04:17:37;13.70;99.90
37240;DHT22;23130;48.760;9.178;2023-06-01T04:20:04;13.80;99.90
37240;DHT22;23130;48.760;9.178;2023-06-01T04:22:32;13.80;99.90
37240;DHT22;23130;48.760;9.178;2023-06-01T04:24:58;14.40;99.90
37240;DHT22;23130;48.760;9.178;2023-06-01T04:27:25;15.60;99.20
37240;DHT22;23130;48.760;9.178;2023-06-01T04:29:52;17.00;98.10
37240;DHT22;23130;48.760;9.178;2023-06-01T04:32:21;18.40;96.10
37240;DHT22;23130;48.760;9.178;2023-06-01T04:34:52;19.60;94.00
37240;DHT22;23130;48.760;9.178;2023-06-01T04:37:18;20.80;92.10
37240;DHT22;23130;48.760;9.178;2023-06-01T04:39:49;22.10;90.50
37240;DHT22;23130;48.760;9.178;2023-06-01T04:42:18;22.20;89.40
37240;DHT22;23130;48.760;9.178;2023-06-01T04:44:44;23.10;86.90
37240;DHT22;23130;48.760;9.178;2023-06-01T04:47:12;23.80;83.50
37240;DHT22;23130;48.760;9.178;2023-06-01T04:49:42;24.30;82.30
37240;DHT22;23130;48.760;9.178;2023-06-01T04:52:08;24.50;83.40
37240;DHT22;23130;48.760;9.178;2023-06-01T04:54:38;24.80;83.80
37240;DHT22;23130;48.760;9.178;2023-06-01T04:57:04;24.70;83.90
37240;DHT22;23130;48.760;9.178;2023-06-01T04:59:41;25.10;83.10
37240;DHT22;23130;48.760;9.178;2023-06-01T05:02:08;24.90;82.20
37240;DHT22;23130;48.760;9.178;2023-06-01T05:04:42;25.30;81.40
37240;DHT22;23130;48.760;9.178;2023-06-01T05:07:09;25.70;80.10
37240;DHT22;23130;48.760;9.178;2023-06-01T05:09:37;25.70;79.20
37240;DHT22;23130;48.760;9.178;2023-06-01T05:12:06;26.70;78.90
37240;DHT22;23130;48.760;9.178;2023-06-01T05:14:35;27.10;78.20
37240;DHT22;23130;48.760;9.178;2023-06-01T05:17:04;27.50;77.50
37240;DHT22;23130;48.760;9.178;2023-06-01T05:19:34;27.70;77.10
37240;DHT22;23130;48.760;9.178;2023-06-01T05:22:01;27.30;77.60
37240;DHT22;23130;48.760;9.178;2023-06-01T05:24:28;27.20;77.90
37240;DHT22;23130;48.760;9.178;2023-06-01T05:27:04;27.00;77.30
37240;DHT22;23130;48.760;9.178;2023-06-01T05:29:35;27.70;76.60
37240;DHT22;23130;48.760;9.178;2023-06-01T05:32:04;28.30;75.10
37240;DHT22;23130;48.760;9.178;2023-06-01T05:34:34;28.50;74.40
37240;DHT22;23130;48.760;9.178;2023-06-01T05:37:06;28.80;74.10
37240;DHT22;23130;48.760;9.178;2023-06-01T05:39:37;28.50;73.60
37240;DHT22;23130;48.760;9.178;2023-06-01T05:42:19;28.50;74.00
37240;DHT22;23130;48.760;9.178;2023-06-01T05:44:57;28.00;71.50
37240;DHT22;23130;48.760;9.178;2023-06-01T05:47:30;27.60;73.70
37240;DHT22;23130;48.760;9.178;2023-06-01T05:50:18;28.30;71.90
37240;DHT22;23130;48.760;9.178;2023-06-01T05:52:44;28.40;72.00
37240;DHT22;23130;48.760;9.178;2023-06-01T05:55:26;28.70;70.40
37240;DHT22;23130;48.760;9.178;2023-06-01T05:58:08;28.80;72.00
37240;DHT22;23130;48.760;9.178;2023-06-01T06:00:53;28.90;70.80
37240;DHT22;23130;48.760;9.178;2023-06-01T06:03:32;29.40;69.80
37240;DHT22;23130;48.760;9.178;2023-06-01T06:08:46;28.80;69.20
37240;DHT22;23130;48.760;9.178;2023-06-01T06:11:14;29.20;69.10
37240;DHT22;23130;48.760;9.178;2023-06-01T06:13:40;28.70;70.40
37240;DHT22;23130;48.760;9.178;2023-06-01T06:16:28;28.70;69.40
37240;DHT22;23130;48.760;9.178;2023-06-01T06:19:01;28.80;69.40
37240;DHT22;23130;48.760;9.178;2023-06-01T06:21:57;28.70;69.70
37240;DHT22;23130;48.760;9.178;2023-06-01T06:24:26;28.70;70.20
37240;DHT22;23130;48.760;9.178;2023-06-01T06:27:09;29.10;69.40
37240;DHT22;23130;48.760;9.178;2023-06-01T06:29:55;29.70;70.00
37240;DHT22;23130;48.760;9.178;2023-06-01T06:32:42;29.40;69.30
37240;DHT22;23130;48.760;9.178;2023-06-01T06:35:15;29.40;69.20
37240;DHT22;23130;48.760;9.178;2023-06-01T06:37:48;29.50;68.60
37240;DHT22;23130;48.760;9.178;2023-06-01T06:40:33;29.00;69.10
37240;DHT22;23130;48.760;9.178;2023-06-01T06:43:09;28.60;69.30
37240;DHT22;23130;48.760;9.178;2023-06-01T06:45:47;29.10;68.70
37240;DHT22;23130;48.760;9.178;2023-06-01T06:48:38;29.50;68.20
37240;DHT22;23130;48.760;9.178;2023-06-01T06:51:08;29.60;68.20
37240;DHT22;23130;48.760;9.178;2023-06-01T06:53:34;29.60;68.20
37240;DHT22;23130;48.760;9.178;2023-06-01T06:56:29;29.90;68.50
37240;DHT22;23130;48.760;9.178;2023-06-01T06:59:36;29.80;67.60
37240;DHT22;23130;48.760;9.178;2023-06-01T07:02:10;29.20;68.00
37240;DHT22;23130;48.760;9.178;2023-06-01T07:04:47;29.40;67.80
37240;DHT22;23130;48.760;9.178;2023-06-01T07:07:16;28.80;68.50
37240;DHT22;23130;48.760;9.178;2023-06-01T07:09:54;28.80;68.10
37240;DHT22;23130;48.760;9.178;2023-06-01T07:12:36;28.90;69.20
37240;DHT22;23130;48.760;9.178;2023-06-01T07:15:38;29.30;68.30
37240;DHT22;23130;48.760;9.178;2023-06-01T07:18:09;29.30;68.40
37240;DHT22;23130;48.760;9.178;2023-06-01T07:21:05;29.30;69.10
37240;DHT22;23130;48.760;9.178;2023-06-01T07:23:51;29.40;69.00
37240;DHT22;23130;48.760;9.178;2023-06-01T07:29:25;29.30;68.50
37240;DHT22;23130;48.760;9.178;2023-06-01T07:32:41;29.60;67.90
37240;DHT22;23130;48.760;9.178;2023-06-01T07:35:58;29.40;67.70
37240;DHT22;23130;48.760;9.178;2023-06-01T07:38:40;28.80;69.40
37240;DHT22;23130;48.760;9.178;2023-06-01T07:41:28;29.20;69.00
37240;DHT22;23130;48.760;9.178;2023-06-01T07:44:09;29.70;68.50
37240;DHT22;23130;48.760;9.178;2023-06-01T07:47:19;29.70;67.60
37240;DHT22;23130;48.760;9.178;2023-06-01T07:49:56;29.30;68.50
37240;DHT22;23130;48.760;9.178;2023-06-01T07:52:23;29.30;68.50
37240;DHT22;23130;48.760;9.178;2023-06-01T07:55:02;29.30;69.40
37240;DHT22;23130;48.760;9.178;2023-06-01T07:57:32;28.30;70.70
37240;DHT22;23130;48.760;9.178;2023-06-01T08:00:04;28.10;70.30
37240;DHT22;23130;48.760;9.178;2023-06-01T08:02:41;28.50;70.00
37240;DHT22;23130;48.760;9.178;2023-06-01T08:05:31;28.70;68.60
37240;DHT22;23130;48.760;9.178;2023-06-01T08:08:02;28.30;70.40
37240;DHT22;23130;48.760;9.178;2023-06-01T08:10:31;28.20;70.30
37240;DHT22;23130;48.760;9.178;2023-06-01T08:13:20;28.60;70.50
37240;DHT22;23130;48.760;9.178;2023-06-01T08:15:56;28.60;69.30
37240;DHT22;23130;48.760;9.178;2023-06-01T08:18:50;28.30;70.30
37240;DHT22;23130;48.760;9.178;2023-06-01T08:21:28;28.40;69.80
37240;DHT22;23130;48.760;9.178;2023-06-01T08:24:21;28.50;70.40
37240;DHT22;23130;48.760;9.178;2023-06-01T08:26:49;28.40;70.50
37240;DHT22;23130;48.760;9.178;2023-06-01T08:29:24;28.30;69.80
37240;DHT22;23130;48.760;9.178;2023-06-01T08:31:56;27.90;70.20
37240;DHT22;23130;48.760;9.178;2023-06-01T08:34:27;27.30;70.70
37240;DHT22;23130;48.760;9.178;2023-06-01T08:36:54;26.30;72.30
37240;DHT22;23130;48.760;9.178;2023-06-01T08:39:29;25.60;73.80
37240;DHT22;23130;48.760;9.178;2023-06-01T08:43:13;25.10;73.80
37240;DHT22;23130;48.760;9.178;2023-06-01T08:45:19;24.70;75.40
37240;DHT22;23130;48.760;9.178;2023-06-01T08:47:46;24.70;75.40
37240;DHT22;23130;48.760;9.178;2023-06-01T08:50:34;24.60;75.50
37240;DHT22;23130;48.760;9.178;2023-06-01T08:53:22;24.60;76.40
37240;DHT22;23130;48.760;9.178;2023-06-01T08:56:07;24.60;76.40
37240;DHT22;23130;48.760;9.178;2023-06-01T08:58:43;24.30;76.40
37240;DHT22;23130;48.760;9.178;2023-06-01T09:01:25;24.30;77.60
37240;DHT22;23130;48.760;9.178;2023-06-01T09:03:55;24.40;77.50
37240;DHT22;23130;48.760;9.178;2023-06-01T09:07:13;24.30;77.40
37240;DHT22;23130;48.760;9.178;2023-06-01T09:10:03;24.50;77.40
37240;DHT22;23130;48.760;9.178;2023-06-01T09:13:04;24.50;78.90
37240;DHT22;23130;48.760;9.178;2023-06-01T09:16:11;24.50;77.70
37240;DHT22;23130;48.760;9.178;2023-06-01T09:19:09;24.40;78.70
37240;DHT22;23130;48.760;9.178;2023-06-01T09:21:39;24.40;78.00
37240;DHT22;23130;48.760;9.178;2023-06-01T09:24:23;24.40;76.60
37240;DHT22;23130;48.760;9.178;2023-06-01T09:26:49;24.40;77.30
37240;DHT22;23130;48.760;9.178;2023-06-01T09:32:28;24.30;78.70
37240;DHT22;23130;48.760;9.178;2023-06-01T09:34:55;24.40;78.90
37240;DHT22;23130;48.760;9.178;2023-06-01T09:38:02;24.40;78.90
37240;DHT22;23130;48.760;9.178;2023-06-01T09:40:39;24.60;80.50
37240;DHT22;23130;48.760;9.178;2023-06-01T09:43:26;24.70;78.80
37240;DHT22;23130;48.760;9.178;2023-06-01T09:46:11;24.90;76.90
37240;DHT22;23130;48.760;9.178;2023-06-01T09:48:39;25.10;77.50
37240;DHT22;23130;48.760;9.178;2023-06-01T09:51:47;25.10;77.50
37240;DHT22;23130;48.760;9.178;2023-06-01T09:54:44;25.10;77.70
37240;DHT22;23130;48.760;9.178;2023-06-01T09:57:42;25.10;77.00
37240;DHT22;23130;48.760;9.178;2023-06-01T10:00:34;25.20;78.40
37240;DHT22;23130;48.760;9.178;2023-06-01T10:06:39;25.10;77.50
37240;DHT22;23130;48.760;9.178;2023-06-01T10:09:10;25.40;77.30
37240;DHT22;23130;48.760;9.178;2023-06-01T10:12:14;25.30;77.70
37240;DHT22;23130;48.760;9.178;2023-06-01T10:14:42;25.30;77.70
37240;DHT22;23130;48.760;9.178;2023-06-01T10:17:34;25.30;78.40
37240;DHT22;23130;48.760;9.178;2023-06-01T10:20:17;25.40;78.40
37240;DHT22;23130;48.760;9.178;2023-06-01T10:23:27;25.70;81.20
37240;DHT22;23130;48.760;9.178;2023-06-01T10:26:21;25.80;78.00
37240;DHT22;23130;48.760;9.178;2023-06-01T10:28:51;25.70;76.50
37240;DHT22;23130;48.760;9.178;2023-06-01T10:31:37;25.70;78.30
37240;DHT22;23130;48.760;9.178;2023-06-01T10:34:06;25.70;77.20
37240;DHT22;23130;48.760;9.178;2023-06-01T10:39:49;25.70;74.80
37240;DHT22;23130;48.760;9.178;2023-06-01T10:42:36;25.80;75.70
37240;DHT22;23130;48.760;9.178;2023-06-01T10:48:08;25.70;74.80
37240;DHT22;23130;48.760;9.178;2023-06-01T10:50:41;25.80;76.10
37240;DHT22;23130;48.760;9.178;2023-06-01T10:53:32;25.70;77.40
37240;DHT22;23130;48.760;9.178;2023-06-01T10:56:28;25.80;77.50
37240;DHT22;23130;48.760;9.178;2023-06-01T10:59:11;26.10;75.80
37240;DHT22;23130;48.760;9.178;2023-06-01T11:01:42;26.00;74.70
37240;DHT22;23130;48.760;9.178;2023-06-01T11:04:11;26.10;75.30
37240;DHT22;23130;48.760;9.178;2023-06-01T11:06:57;26.10;74.30
37240;DHT22;23130;48.760;9.178;2023-06-01T11:09:52;25.90;74.60
37240;DHT22;23130;48.760;9.178;2023-06-01T11:12:23;26.10;76.20
37240;DHT22;23130;48.760;9.178;2023-06-01T11:15:11;26.20;75.10
37240;DHT22;23130;48.760;9.178;2023-06-01T11:17:49;26.20;76.10
37240;DHT22;23130;48.760;9.178;2023-06-01T11:20:18;26.30;75.90
37240;DHT22;23130;48.760;9.178;2023-06-01T11:22:52;26.30;75.90
37240;DHT22;23130;48.760;9.178;2023-06-01T11:25:25;26.10;75.80
37240;DHT22;23130;48.760;9.178;2023-06-01T11:27:52;26.10;75.20
37240;DHT22;23130;48.760;9.178;2023-06-01T11:30:19;26.30;76.10
37240;DHT22;23130;48.760;9.178;2023-06-01T11:32:47;26.50;75.00
37240;DHT22;23130;48.760;9.178;2023-06-01T11:35:23;26.60;75.70
37240;DHT22;23130;48.760;9.178;2023-06-01T11:37:57;26.60;76.50
37240;DHT22;23130;48.760;9.178;2023-06-01T11:41:02;26.60;76.00
37240;DHT22;23130;48.760;9.178;2023-06-01T11:43:31;26.50;73.80
37240;DHT22;23130;48.760;9.178;2023-06-01T11:46:12;26.40;74.00
37240;DHT22;23130;48.760;9.178;2023-06-01T11:48:40;26.30;74.20
37240;DHT22;23130;48.760;9.178;2023-06-01T11:51:22;26.30;72.70
37240;DHT22;23130;48.760;9.178;2023-06-01T11:53:58;26.20;74.00
37240;DHT22;23130;48.760;9.178;2023-06-01T11:56:40;26.20;75.10
37240;DHT22;23130;48.760;9.178;2023-06-01T11:59:28;26.20;73.00
37240;DHT22;23130;48.760;9.178;2023-06-01T12:02:28;26.20;72.70
37240;DHT22;23130;48.760;9.178;2023-06-01T12:05:08;26.30;73.30
37240;DHT22;23130;48.760;9.178;2023-06-01T12:10:11;26.40;73.80
37240;DHT22;23130;48.760;9.178;2023-06-01T12:12:53;26.30;75.20
37240;DHT22;23130;48.760;9.178;2023-06-01T12:15:27;26.30;74.10
37240;DHT22;23130;48.760;9.178;2023-06-01T12:17:57;26.30;73.30
37240;DHT22;23130;48.760;9.178;2023-06-01T12:23:13;26.40;74.30
37240;DHT22;23130;48.760;9.178;2023-06-01T12:25:54;26.80;72.90
37240;DHT22;23130;48.760;9.178;2023-06-01T12:28:27;26.90;71.50
37240;DHT22;23130;48.760;9.178;2023-06-01T12:31:14;26.80;71.10
37240;DHT22;23130;48.760;9.178;2023-06-01T12:34:03;27.00;71.00
37240;DHT22;23130;48.760;9.178;2023-06-01T12:36:43;27.00;69.70
37240;DHT22;23130;48.760;9.178;2023-06-01T12:39:12;26.90;69.70
37240;DHT22;23130;48.760;9.178;2023-06-01T12:41:47;26.80;68.70
37240;DHT22;23130;48.760;9.178;2023-06-01T12:44:19;27.00;69.40
37240;DHT22;23130;48.760;9.178;2023-06-01T12:46:46;27.30;71.20
37240;DHT22;23130;48.760;9.178;2023-06-01T12:49:20;27.20;72.10
37240;DHT22;23130;48.760;9.178;2023-06-01T12:51:53;27.10;71.60
37240;DHT22;23130;48.760;9.178;2023-06-01T12:54:26;27.20;72.60
37240;DHT22;23130;48.760;9.178;2023-06-01T12:56:55;27.40;71.80
37240;DHT22;23130;48.760;9.178;2023-06-01T12:59:23;27.70;70.90
37240;DHT22;23130;48.760;9.178;2023-06-01T13:01:52;27.90;69.80
37240;DHT22;23130;48.760;9.178;2023-06-01T13:04:28;28.00;69.90
37240;DHT22;23130;48.760;9.178;2023-06-01T13:06:58;28.00;70.20
37240;DHT22;23130;48.760;9.178;2023-06-01T13:09:30;28.00;69.40
37240;DHT22;23130;48.760;9.178;2023-06-01T13:11:56;27.80;70.20
37240;DHT22;23130;48.760;9.178;2023-06-01T13:14:27;27.60;70.10
37240;DHT22;23130;48.760;9.178;2023-06-01T13:17:06;27.50;71.30
37240;DHT22;23130;48.760;9.178;2023-06-01T13:19:55;27.30;70.10
37240;DHT22;23130;48.760;9.178;2023-06-01T13:22:33;27.10;71.80
37240;DHT22;23130;48.760;9.178;2023-06-01T13:24:59;27.30;73.10
37240;DHT22;23130;48.760;9.178;2023-06-01T13:27:28;27.20;73.80
37240;DHT22;23130;48.760;9.178;2023-06-01T13:29:54;27.00;74.50
37240;DHT22;23130;48.760;9.178;2023-06-01T13:32:24;27.20;73.90
37240;DHT22;23130;48.760;9.178;2023-06-01T13:34:50;27.10;73.30
37240;DHT22;23130;48.760;9.178;2023-06-01T13:37:16;26.90;74.20
37240;DHT22;23130;48.760;9.178;2023-06-01T13:39:50;26.80;74.40
37240;DHT22;23130;48.760;9.178;2023-06-01T13:42:20;26.80;75.50
37240;DHT22;23130;48.760;9.178;2023-06-01T13:44:47;26.90;74.40
37240;DHT22;23130;48.760;9.178;2023-06-01T13:47:15;27.10;73.40
37240;DHT22;23130;48.760;9.178;2023-06-01T13:49:44;27.10;73.40
37240;DHT22;23130;48.760;9.178;2023-06-01T13:52:15;26.90;73.10
37240;DHT22;23130;48.760;9.178;2023-06-01T13:54:54;26.60;72.60
37240;DHT22;23130;48.760;9.178;2023-06-01T13:58:03;26.40;72.70
37240;DHT22;23130;48.760;9.178;2023-06-01T14:00:30;26.50;73.30
37240;DHT22;23130;48.760;9.178;2023-06-01T14:02:56;26.60;72.90
37240;DHT22;23130;48.760;9.178;2023-06-01T14:05:32;26.70;73.60
37240;DHT22;23130;48.760;9.178;2023-06-01T14:08:32;26.80;74.10
37240;DHT22;23130;48.760;9.178;2023-06-01T14:10:59;26.90;74.10
37240;DHT22;23130;48.760;9.178;2023-06-01T14:13:34;26.70;72.50
37240;DHT22;23130;48.760;9.178;2023-06-01T14:16:05;26.70;74.20
37240;DHT22;23130;48.760;9.178;2023-06-01T14:18:40;26.50;73.10
37240;DHT22;23130;48.760;9.178;2023-06-01T14:21:06;26.70;73.10
37240;DHT22;23130;48.760;9.178;2023-06-01T14:23:32;26.90;71.60
37240;DHT22;23130;48.760;9.178;2023-06-01T14:25:59;27.10;70.90
37240;DHT22;23130;48.760;9.178;2023-06-01T14:28:25;27.20;71.10
37240;DHT22;23130;48.760;9.178;2023-06-01T14:30:51;27.30;70.50
37240;DHT22;23130;48.760;9.178;2023-06-01T14:33:19;27.40;69.40
37240;DHT22;23130;48.760;9.178;2023-06-01T14:36:08;27.20;69.10
37240;DHT22;23130;48.760;9.178;2023-06-01T14:38:56;27.30;69.20
37240;DHT22;23130;48.760;9.178;2023-06-01T14:41:23;27.50;70.10
37240;DHT22;23130;48.760;9.178;2023-06-01T14:44:06;27.50;70.00
37240;DHT22;23130;48.760;9.178;2023-06-01T14:46:32;27.60;70.00
37240;DHT22;23130;48.760;9.178;2023-06-01T14:48:58;27.60;70.60
37240;DHT22;23130;48.760;9.178;2023-06-01T14:51:30;27.70;68.90
37240;DHT22;23130;48.760;9.178;2023-06-01T14:53:59;27.70;68.40
37240;DHT22;23130;48.760;9.178;2023-06-01T14:56:25;27.70;68.70
37240;DHT22;23130;48.760;9.178;2023-06-01T14:58:59;27.80;68.90
37240;DHT22;23130;48.760;9.178;2023-06-01T15:01:30;27.80;67.70
37240;DHT22;23130;48.760;9.178;2023-06-01T15:03:57;27.80;70.60
37240;DHT22;23130;48.760;9.178;2023-06-01T15:06:24;27.90;70.00
37240;DHT22;23130;48.760;9.178;2023-06-01T15:08:50;27.70;68.60
37240;DHT22;23130;48.760;9.178;2023-06-01T15:11:24;27.70;71.10
37240;DHT22;23130;48.760;9.178;2023-06-01T15:13:52;27.70;68.70
37240;DHT22;23130;48.760;9.178;2023-06-01T15:16:33;27.60;69.90
37240;DHT22;23130;48.760;9.178;2023-06-01T15:19:04;27.70;70.10
37240;DHT22;23130;48.760;9.178;2023-06-01T15:21:50;27.50;69.20
37240;DHT22;23130;48.760;9.178;2023-06-01T15:24:26;27.60;71.10
37240;DHT22;23130;48.760;9.178;2023-06-01T15:26:53;27.50;69.40
37240;DHT22;23130;48.760;9.178;2023-06-01T15:29:20;27.70;69.60
37240;DHT22;23130;48.760;9.178;2023-06-01T15:31:48;27.80;70.00
37240;DHT22;23130;48.760;9.178;2023-06-01T15:34:17;27.70;70.00
37240;DHT22;23130;48.760;9.178;2023-06-01T15:36:44;28.00;71.50
37240;DHT22;23130;48.760;9.178;2023-06-01T15:39:10;28.00;69.50
37240;DHT22;23130;48.760;9.178;2023-06-01T15:41:42;27.90;68.80
37240;DHT22;23130;48.760;9.178;2023-06-01T15:44:23;27.90;69.90
37240;DHT22;23130;48.760;9.178;2023-06-01T15:46:55;28.10;70.20
37240;DHT22;23130;48.760;9.178;2023-06-01T15:49:30;27.90;68.40
37240;DHT22;23130;48.760;9.178;2023-06-01T15:52:00;27.70;69.40
37240;DHT22;23130;48.760;9.178;2023-06-01T15:54:45;27.70;68.40
37240;DHT22;23130;48.760;9.178;2023-06-01T15:57:14;27.50;69.20
37240;DHT22;23130;48.760;9.178;2023-06-01T15:59:45;27.40;68.10
37240;DHT22;23130;48.760;9.178;2023-06-01T16:02:15;27.60;68.80
37240;DHT22;23130;48.760;9.178;2023-06-01T16:04:44;27.70;68.10
37240;DHT22;23130;48.760;9.178;2023-06-01T16:07:11;27.80;69.40
37240;DHT22;23130;48.760;9.178;2023-06-01T16:09:42;27.60;69.00
37240;DHT22;23130;48.760;9.178;2023-06-01T16:12:33;27.40;70.80
37240;DHT22;23130;48.760;9.178;2023-06-01T16:15:03;27.40;69.30
37240;DHT22;23130;48.760;9.178;2023-06-01T16:17:34;27.40;67.30
37240;DHT22;23130;48.760;9.178;2023-06-01T16:20:04;27.30;69.40
37240;DHT22;23130;48.760;9.178;2023-06-01T16:22:32;27.40;68.00
37240;DHT22;23130;48.760;9.178;2023-06-01T16:25:29;27.30;68.10
37240;DHT22;23130;48.760;9.178;2023-06-01T16:28:06;27.40;68.10
37240;DHT22;23130;48.760;9.178;2023-06-01T16:30:36;27.40;67.80
37240;DHT22;23130;48.760;9.178;2023-06-01T16:33:02;27.40;67.90
37240;DHT22;23130;48.760;9.178;2023-06-01T16:35:29;27.30;68.00
37240;DHT22;23130;48.760;9.178;2023-06-01T16:38:00;27.30;67.90
37240;DHT22;23130;48.760;9.178;2023-06-01T16:40:25;27.20;66.70
37240;DHT22;23130;48.760;9.178;2023-06-01T16:42:55;27.20;67.70
37240;DHT22;23130;48.760;9.178;2023-06-01T16:45:21;27.20;66.90
37240;DHT22;23130;48.760;9.178;2023-06-01T16:47:47;27.20;67.30
37240;DHT22;23130;48.760;9.178;2023-06-01T16:50:36;27.20;67.60
37240;DHT22;23130;48.760;9.178;2023-06-01T16:53:41;27.10;68.50
37240;DHT22;23130;48.760;9.178;2023-06-01T16:56:36;27.10;66.80